createdAt,value
2018-06-25T00:01:30.049Z,300.73
2018-06-25T00:03:32.011Z,303.80
2018-06-25T00:05:34.002Z,303.05
2018-06-25T00:07:35.989Z,297.20
2018-06-25T00:09:37.957Z,373.00
2018-06-25T00:11:39.941Z,376.27
2018-06-25T00:13:41.931Z,390.43
2018-06-25T00:15:43.903Z,356.45
2018-06-25T00:17:45.883Z,358.82
2018-06-25T00:19:47.851Z,359.10
2018-06-25T00:21:49.841Z,327.27
2018-06-25T00:23:51.795Z,372.65
2018-06-25T00:25:53.769Z,388.50
2018-06-25T00:27:55.855Z,348.85
2018-06-25T00:29:57.823Z,347.33
2018-06-25T00:31:59.787Z,344.05
2018-06-25T00:34:01.753Z,336.45
2018-06-25T00:36:03.737Z,330.37
2018-06-25T00:38:05.705Z,341.82
2018-06-25T00:40:07.671Z,351.40
2018-06-25T00:42:09.687Z,356.38
2018-06-25T00:44:12.042Z,387.52
2018-06-25T00:46:13.871Z,388.95
2018-06-25T00:48:15.864Z,392.45
2018-06-25T00:50:17.837Z,396.45
2018-06-25T00:52:19.838Z,393.73
2018-06-25T00:54:21.790Z,430.43
2018-06-25T00:56:23.755Z,413.95
2018-06-25T00:58:25.732Z,369.07
2018-06-25T01:00:27.683Z,375.50
2018-06-25T01:02:29.673Z,388.90
2018-06-25T01:04:31.657Z,375.48
2018-06-25T01:06:33.621Z,381.77
2018-06-25T01:08:35.615Z,379.98
2018-06-25T01:10:37.586Z,372.17
2018-06-25T01:12:39.558Z,370.42
2018-06-25T01:14:41.553Z,359.20
2018-06-25T01:16:43.520Z,360.65
2018-06-25T01:18:45.489Z,364.17
2018-06-25T01:20:47.474Z,356.10
2018-06-25T01:22:49.431Z,350.85
2018-06-25T01:24:51.420Z,369.48
2018-06-25T01:26:53.661Z,365.68
2018-06-25T01:28:55.639Z,351.30
2018-06-25T01:30:57.626Z,360.13
2018-06-25T01:32:59.597Z,345.60
2018-06-25T01:35:01.585Z,356.43
2018-06-25T01:37:03.549Z,354.05
2018-06-25T01:39:05.512Z,340.65
2018-06-25T01:41:07.503Z,333.02
2018-06-25T01:43:09.470Z,338.10
2018-06-25T01:45:11.460Z,338.35
2018-06-25T01:47:13.436Z,333.30
2018-06-25T01:49:15.437Z,340.20
2018-06-25T01:51:17.413Z,326.73
2018-06-25T01:53:19.376Z,327.65
2018-06-25T01:55:21.333Z,331.85
2018-06-25T01:57:23.324Z,322.10
2018-06-25T01:59:25.302Z,324.20
2018-06-25T02:01:27.293Z,331.27
2018-06-25T02:03:29.256Z,328.95
2018-06-25T02:05:31.225Z,317.52
2018-06-25T02:07:33.217Z,310.93
2018-06-25T02:09:35.183Z,320.85
2018-06-25T02:11:37.140Z,314.23
2018-06-25T02:13:39.131Z,316.27
2018-06-25T02:15:41.087Z,309.80
2018-06-25T02:17:43.071Z,308.25
2018-06-25T02:19:45.034Z,309.40
2018-06-25T02:21:47.004Z,311.70
2018-06-25T02:23:49.000Z,301.92
2018-06-25T02:25:50.956Z,300.93
2018-06-25T02:27:52.938Z,306.63
2018-06-25T02:29:54.912Z,303.92
2018-06-25T02:31:56.874Z,296.40
2018-06-25T02:33:58.863Z,303.32
2018-06-25T02:36:00.854Z,302.02
2018-06-25T02:38:02.821Z,300.07
2018-06-25T02:40:04.788Z,294.55
2018-06-25T02:42:06.769Z,295.03
2018-06-25T02:44:08.767Z,285.63
2018-06-25T02:46:10.733Z,281.40
2018-06-25T02:48:12.709Z,276.15
2018-06-25T02:50:14.689Z,258.77
2018-06-25T02:52:16.675Z,248.62
2018-06-25T02:54:18.648Z,254.38
2018-06-25T02:56:20.616Z,249.07
2018-06-25T02:58:22.591Z,242.85
2018-06-25T03:00:24.579Z,234.50
2018-06-25T03:02:26.539Z,239.12
2018-06-25T03:04:28.516Z,240.70
2018-06-25T03:06:30.487Z,229.53
2018-06-25T03:08:32.460Z,222.98
2018-06-25T03:10:34.445Z,228.02
2018-06-25T03:12:36.409Z,222.48
2018-06-25T03:14:38.383Z,221.90
2018-06-25T03:16:40.788Z,216.05
2018-06-25T03:18:42.626Z,218.27
2018-06-25T03:20:44.599Z,223.20
2018-06-25T03:22:46.596Z,215.30
2018-06-25T03:24:48.571Z,215.12
2018-06-25T03:26:50.547Z,208.02
2018-06-25T03:28:52.519Z,208.85
2018-06-25T03:30:54.493Z,202.78
2018-06-25T03:32:56.464Z,265.32
2018-06-25T03:34:58.437Z,256.00
2018-06-25T03:37:00.412Z,292.73
2018-06-25T03:39:02.396Z,515.85
2018-06-25T03:41:04.349Z,361.57
2018-06-25T03:43:06.360Z,166.25
2018-06-25T03:45:08.300Z,90.60
2018-06-25T03:47:10.268Z,63.17
2018-06-25T03:49:12.242Z,243.50
2018-06-25T03:51:14.250Z,136.45
2018-06-25T03:53:16.236Z,226.92
2018-06-25T03:55:18.204Z,93.27
2018-06-25T03:57:20.162Z,96.08
2018-06-25T03:59:22.152Z,63.45
2018-06-25T04:01:24.208Z,50.03
2018-06-25T04:03:26.160Z,81.40
2018-06-25T04:05:28.150Z,966.47
2018-06-25T04:07:30.137Z,139.65
2018-06-25T04:09:32.158Z,200.38
2018-06-25T04:11:34.119Z,150.95
2018-06-25T04:13:36.091Z,160.52
2018-06-25T04:15:38.068Z,162.60
2018-06-25T04:17:40.038Z,168.07
2018-06-25T04:19:42.020Z,168.25
2018-06-25T04:21:43.985Z,162.07
2018-06-25T04:23:46.012Z,159.78
2018-06-25T04:25:48.345Z,162.22
2018-06-25T04:27:50.196Z,708.80
2018-06-25T04:29:52.168Z,189.43
2018-06-25T04:31:54.135Z,215.05
2018-06-25T04:33:56.120Z,236.60
2018-06-25T04:35:58.109Z,314.75
2018-06-25T04:38:00.104Z,328.92
2018-06-25T04:40:02.068Z,978.27
2018-06-25T04:42:04.048Z,338.12
2018-06-25T04:44:06.028Z,425.95
2018-06-25T04:46:08.032Z,363.23
2018-06-25T04:48:10.021Z,358.23
2018-06-25T04:50:11.978Z,358.07
2018-06-25T04:52:13.975Z,347.00
2018-06-25T04:54:16.319Z,353.95
2018-06-25T04:56:18.169Z,353.95
2018-06-25T04:58:20.145Z,345.35
2018-06-25T05:00:22.119Z,343.70
2018-06-25T05:02:24.094Z,349.45
2018-06-25T05:04:26.077Z,356.55
2018-06-25T05:06:28.045Z,348.40
2018-06-25T05:08:30.040Z,337.82
2018-06-25T05:10:32.029Z,344.93
2018-06-25T05:12:34.007Z,336.30
2018-06-25T05:14:35.983Z,334.07
2018-06-25T05:16:37.950Z,335.77
2018-06-25T05:18:39.921Z,330.32
2018-06-25T05:20:41.904Z,331.68
2018-06-25T05:22:43.887Z,331.10
2018-06-25T05:24:45.873Z,325.95
2018-06-25T05:26:47.849Z,320.52
2018-06-25T05:28:49.827Z,324.62
2018-06-25T05:30:51.810Z,315.57
2018-06-25T05:32:53.790Z,321.02
2018-06-25T05:34:55.749Z,315.02
2018-06-25T05:36:57.738Z,300.93
2018-06-25T05:38:59.718Z,312.85
2018-06-25T05:41:01.683Z,299.27
2018-06-25T05:43:03.661Z,300.22
2018-06-25T05:45:05.641Z,298.43
2018-06-25T05:47:07.609Z,312.40
2018-06-25T05:49:09.591Z,312.25
2018-06-25T05:51:11.585Z,305.35
2018-06-25T05:53:13.556Z,292.65
2018-06-25T05:55:15.526Z,289.72
2018-06-25T05:57:17.517Z,299.25
2018-06-25T05:59:19.482Z,284.30
2018-06-25T06:01:21.443Z,295.30
2018-06-25T06:03:23.431Z,296.23
2018-06-25T06:05:25.404Z,301.25
2018-06-25T06:07:27.407Z,283.05
2018-06-25T06:09:29.787Z,271.32
2018-06-25T06:11:31.616Z,279.32
2018-06-25T06:13:33.595Z,282.80
2018-06-25T06:15:35.576Z,283.25
2018-06-25T06:17:37.555Z,269.80
2018-06-25T06:19:39.538Z,262.20
2018-06-25T06:21:41.505Z,281.93
2018-06-25T06:23:43.487Z,266.05
2018-06-25T06:25:45.465Z,268.23
2018-06-25T06:27:47.441Z,270.05
2018-06-25T06:29:49.422Z,269.30
2018-06-25T06:31:51.394Z,263.48
2018-06-25T06:33:53.376Z,271.75
2018-06-25T06:35:55.353Z,262.10
2018-06-25T06:37:57.693Z,267.43
2018-06-25T06:39:59.584Z,255.03
2018-06-25T06:42:01.800Z,261.27
2018-06-25T06:44:03.766Z,259.83
2018-06-25T06:46:05.759Z,248.55
2018-06-25T06:48:07.735Z,261.77
2018-06-25T06:50:09.701Z,246.80
2018-06-25T06:52:11.677Z,240.00
2018-06-25T06:54:13.659Z,245.90
2018-06-25T06:56:15.645Z,240.15
2018-06-25T06:58:17.621Z,248.20
2018-06-25T07:00:19.579Z,243.37
2018-06-25T07:02:21.563Z,259.67
2018-06-25T07:04:23.539Z,246.05
2018-06-25T07:06:25.529Z,231.05
2018-06-25T07:08:27.482Z,239.17
2018-06-25T07:10:29.564Z,244.43
2018-06-25T07:12:31.569Z,240.87
2018-06-25T07:14:33.566Z,226.65
2018-06-25T07:16:35.537Z,230.65
2018-06-25T07:18:37.519Z,225.45
2018-06-25T07:20:39.483Z,230.62
2018-06-25T07:22:41.465Z,237.05
2018-06-25T07:24:43.418Z,223.05
2018-06-25T07:26:45.397Z,233.93
2018-06-25T07:28:47.442Z,224.82
2018-06-25T07:30:49.367Z,232.25
2018-06-25T07:32:51.377Z,221.90
2018-06-25T07:34:53.354Z,215.85
2018-06-25T07:36:55.323Z,215.40
2018-06-25T07:38:57.302Z,225.43
2018-06-25T07:40:59.281Z,207.30
2018-06-25T07:43:01.655Z,224.52
2018-06-25T07:45:03.507Z,217.00
2018-06-25T07:47:05.500Z,216.48
2018-06-25T07:49:07.445Z,209.70
2018-06-25T07:51:09.413Z,216.17
2018-06-25T07:53:11.404Z,215.18
2018-06-25T07:55:13.373Z,215.52
2018-06-25T07:57:15.334Z,204.50
2018-06-25T07:59:17.705Z,202.95
2018-06-25T08:03:27.864Z,215.32
2018-06-25T08:05:29.865Z,210.02
2018-06-25T08:07:31.839Z,206.10
2018-06-25T08:09:33.810Z,205.55
2018-06-25T08:11:35.790Z,205.35
2018-06-25T08:13:37.777Z,197.95
2018-06-25T08:15:39.776Z,204.50
2018-06-25T08:17:41.747Z,195.75
2018-06-25T08:19:43.734Z,191.30
2018-06-25T08:21:45.718Z,198.70
2018-06-25T08:23:47.698Z,197.50
2018-06-25T08:25:49.682Z,192.37
2018-06-25T08:27:51.650Z,183.97
2018-06-25T08:29:53.640Z,194.37
2018-06-25T08:31:55.608Z,196.45
2018-06-25T08:33:57.676Z,187.22
2018-06-25T08:35:59.822Z,185.12
2018-06-25T08:38:01.804Z,193.00
2018-06-25T08:40:03.767Z,180.07
2018-06-25T08:42:05.760Z,181.87
2018-06-25T08:44:07.715Z,180.65
2018-06-25T08:46:09.710Z,178.15
2018-06-25T08:48:11.683Z,180.10
2018-06-25T08:50:13.862Z,175.05
2018-06-25T08:52:15.836Z,179.53
2018-06-25T08:54:17.812Z,183.25
2018-06-25T08:56:19.862Z,177.38
2018-06-25T08:58:21.931Z,180.32
2018-06-25T09:00:24.315Z,168.45
2018-06-25T09:02:26.163Z,167.72
2018-06-25T09:04:28.215Z,162.43
2018-06-25T09:06:30.112Z,167.50
2018-06-25T09:08:32.108Z,172.05
2018-06-25T09:10:34.056Z,165.97
2018-06-25T09:12:36.038Z,164.55
2018-06-25T09:14:38.017Z,168.25
2018-06-25T09:16:40.009Z,164.15
2018-06-25T09:18:41.982Z,160.78
2018-06-25T09:20:43.964Z,166.75
2018-06-25T09:22:45.919Z,159.00
2018-06-25T09:24:47.895Z,160.52
2018-06-25T09:26:49.872Z,158.15
2018-06-25T09:31:00.318Z,160.15
2018-06-25T09:33:02.292Z,158.93
2018-06-25T09:35:04.268Z,155.12
2018-06-25T09:37:06.238Z,153.62
2018-06-25T09:39:08.236Z,152.30
2018-06-25T09:41:10.219Z,153.45
2018-06-25T09:43:12.575Z,158.68
2018-06-25T09:45:14.569Z,148.68
2018-06-25T09:47:16.538Z,151.05
2018-06-25T09:49:18.494Z,148.02
2018-06-25T09:51:20.468Z,153.00
2018-06-25T09:53:22.437Z,151.65
2018-06-25T09:55:24.490Z,145.50
2018-06-25T09:57:26.464Z,141.80
2018-06-25T09:59:28.443Z,145.35
2018-06-25T10:01:30.417Z,147.60
2018-06-25T10:03:32.425Z,145.70
2018-06-25T10:05:34.836Z,144.87
2018-06-25T10:07:36.814Z,144.97
2018-06-25T10:09:38.804Z,145.20
2018-06-25T10:11:40.770Z,142.72
2018-06-25T10:13:42.741Z,139.88
2018-06-25T10:15:44.726Z,137.25
2018-06-25T10:17:46.686Z,139.52
2018-06-25T10:19:48.658Z,139.35
2018-06-25T10:21:50.659Z,137.05
2018-06-25T10:23:52.611Z,135.60
2018-06-25T10:25:54.605Z,134.87
2018-06-25T10:27:56.583Z,133.63
2018-06-25T10:29:58.573Z,134.72
2018-06-25T10:32:00.556Z,129.82
2018-06-25T10:34:02.506Z,129.23
2018-06-25T10:36:04.507Z,127.60
2018-06-25T10:38:06.478Z,126.55
2018-06-25T10:40:08.441Z,135.15
2018-06-25T10:42:10.485Z,131.22
2018-06-25T10:44:12.417Z,125.72
2018-06-25T10:46:14.794Z,122.35
2018-06-25T10:48:16.641Z,126.07
2018-06-25T10:50:18.619Z,125.72
2018-06-25T10:52:20.599Z,123.62
2018-06-25T10:54:22.565Z,124.00
2018-06-25T10:56:24.639Z,123.80
2018-06-25T10:58:26.616Z,121.67
2018-06-25T11:00:28.667Z,120.40
2018-06-25T11:02:30.577Z,124.00
2018-06-25T11:04:32.549Z,122.07
2018-06-25T11:06:34.517Z,122.75
2018-06-25T11:08:36.497Z,120.92
2018-06-25T11:10:38.857Z,119.82
2018-06-25T11:12:40.723Z,118.95
2018-06-25T11:14:42.677Z,120.33
2018-06-25T11:16:44.655Z,120.22
2018-06-25T11:18:46.637Z,116.10
2018-06-25T11:20:48.618Z,116.73
2018-06-25T11:22:50.597Z,116.62
2018-06-25T11:24:52.581Z,114.12
2018-06-25T11:26:54.621Z,107.80
2018-06-25T11:28:56.554Z,109.52
2018-06-25T11:30:58.547Z,112.17
2018-06-25T11:33:00.487Z,110.72
2018-06-25T11:35:02.477Z,104.95
2018-06-25T11:37:04.447Z,112.60
2018-06-25T11:39:06.425Z,105.43
2018-06-25T11:41:08.413Z,106.83
2018-06-25T11:43:10.386Z,108.45
2018-06-25T11:45:12.766Z,105.85
2018-06-25T11:47:14.631Z,113.83
2018-06-25T11:49:16.606Z,100.30
2018-06-25T11:51:18.589Z,101.97
2018-06-25T11:53:20.569Z,104.92
2018-06-25T11:55:22.530Z,103.05
2018-06-25T11:57:24.519Z,104.25
2018-06-25T11:59:26.488Z,103.90
2018-06-25T12:01:28.471Z,104.25
2018-06-25T12:03:30.477Z,99.83
2018-06-25T12:05:32.422Z,101.05
2018-06-25T12:07:34.393Z,101.62
2018-06-25T12:09:36.383Z,97.80
2018-06-25T12:11:38.379Z,98.00
2018-06-25T12:13:40.330Z,99.05
2018-06-25T12:15:42.315Z,98.22
2018-06-25T12:17:44.295Z,93.80
2018-06-25T12:19:46.298Z,95.90
2018-06-25T12:21:48.232Z,95.75
2018-06-25T12:23:50.210Z,93.20
2018-06-25T12:25:52.178Z,92.82
2018-06-25T12:27:54.228Z,94.83
2018-06-25T12:29:56.136Z,97.27
2018-06-25T12:31:58.142Z,91.85
2018-06-25T12:34:00.094Z,91.87
2018-06-25T12:36:02.049Z,90.87
2018-06-25T12:38:04.108Z,88.15
2018-06-25T12:40:06.003Z,88.07
2018-06-25T12:42:07.976Z,86.82
2018-06-25T12:44:09.952Z,90.45
2018-06-25T12:46:11.920Z,87.65
2018-06-25T12:48:13.962Z,87.78
2018-06-25T12:50:15.916Z,89.45
2018-06-25T12:52:17.868Z,86.02
2018-06-25T12:54:19.854Z,91.17
2018-06-25T12:56:21.817Z,89.00
2018-06-25T12:58:23.786Z,86.20
2018-06-25T13:00:25.770Z,85.32
2018-06-25T13:02:27.752Z,85.83
2018-06-25T13:04:29.709Z,85.03
2018-06-25T13:06:31.693Z,84.85
2018-06-25T13:08:33.672Z,83.35
2018-06-25T13:10:35.663Z,84.40
2018-06-25T13:12:38.091Z,82.72
2018-06-25T13:14:40.098Z,81.92
2018-06-25T13:16:42.078Z,75.70
2018-06-25T13:18:44.058Z,81.60
2018-06-25T13:20:46.064Z,80.50
2018-06-25T13:22:47.981Z,81.87
2018-06-25T13:24:49.951Z,79.65
2018-06-25T13:26:51.912Z,81.30
2018-06-25T13:28:53.902Z,79.32
2018-06-25T13:30:55.911Z,78.40
2018-06-25T13:32:58.103Z,78.35
2018-06-25T13:35:00.074Z,75.15
2018-06-25T13:37:02.040Z,78.40
2018-06-25T13:39:04.002Z,77.95
2018-06-25T13:41:05.964Z,78.47
2018-06-25T13:43:07.935Z,75.55
2018-06-25T13:45:09.900Z,75.70
2018-06-25T13:47:11.882Z,76.87
2018-06-25T13:49:14.247Z,74.77
2018-06-25T13:51:16.091Z,74.45
2018-06-25T13:53:18.062Z,75.85
2018-06-25T13:55:20.039Z,76.00
2018-06-25T13:57:21.997Z,77.00
2018-06-25T13:59:23.983Z,72.72
2018-06-25T14:01:25.954Z,73.35
2018-06-25T14:03:27.921Z,71.87
2018-06-25T14:05:29.925Z,71.65
2018-06-25T14:07:31.900Z,74.35
2018-06-25T14:09:33.855Z,71.42
2018-06-25T14:11:35.827Z,70.83
2018-06-25T14:13:37.797Z,71.67
2018-06-25T14:15:39.795Z,70.08
2018-06-25T14:17:42.147Z,70.78
2018-06-25T14:19:43.992Z,69.20
2018-06-25T14:21:45.953Z,67.75
2018-06-25T14:23:47.908Z,66.37
2018-06-25T14:25:49.882Z,68.30
2018-06-25T14:27:51.876Z,68.97
2018-06-25T14:29:53.848Z,68.75
2018-06-25T14:31:55.870Z,64.67
2018-06-25T14:33:57.831Z,63.85
2018-06-25T14:35:59.805Z,63.60
2018-06-25T14:38:01.768Z,64.70
2018-06-25T14:40:03.795Z,62.85
2018-06-25T14:42:06.013Z,64.15
2018-06-25T14:44:08.072Z,62.98
2018-06-25T14:46:10.052Z,65.50
2018-06-25T14:48:12.105Z,63.05
2018-06-25T14:50:14.034Z,62.95
2018-06-25T14:52:16.000Z,62.90
2018-06-25T14:54:17.985Z,60.50
2018-06-25T14:56:19.942Z,61.60
2018-06-25T14:58:21.906Z,61.35
2018-06-25T15:00:23.869Z,63.58
2018-06-25T15:02:25.843Z,60.60
2018-06-25T15:04:27.832Z,61.33
2018-06-25T15:06:29.805Z,58.95
2018-06-25T15:08:31.770Z,57.65
2018-06-25T15:10:33.777Z,56.70
2018-06-25T15:12:35.748Z,61.48
2018-06-25T15:14:37.747Z,59.73
2018-06-25T15:16:39.719Z,59.10
2018-06-25T15:18:41.889Z,59.93
2018-06-25T15:20:43.857Z,58.70
2018-06-25T15:22:45.815Z,57.85
2018-06-25T15:24:47.805Z,58.02
2018-06-25T15:26:49.771Z,56.02
2018-06-25T15:28:52.129Z,55.38
2018-06-25T15:30:53.981Z,56.98
2018-06-25T15:32:55.955Z,56.42
2018-06-25T15:34:57.946Z,53.08
2018-06-25T15:36:59.897Z,57.55
2018-06-25T15:39:01.875Z,56.92
2018-06-25T15:41:03.838Z,56.90
2018-06-25T15:43:05.805Z,53.40
2018-06-25T15:45:07.784Z,54.23
2018-06-25T15:47:09.742Z,53.00
2018-06-25T15:49:11.713Z,56.53
2018-06-25T15:51:13.697Z,53.25
2018-06-25T15:53:15.720Z,53.55
2018-06-25T15:55:17.643Z,52.45
2018-06-25T15:57:19.610Z,52.25
2018-06-25T15:59:21.593Z,51.33
2018-06-25T16:01:23.568Z,51.37
2018-06-25T16:03:25.527Z,51.85
2018-06-25T16:05:27.524Z,53.33
2018-06-25T16:07:29.501Z,53.15
2018-06-25T16:09:31.832Z,52.08
2018-06-25T16:11:33.703Z,52.10
2018-06-25T16:13:35.676Z,50.60
2018-06-25T16:15:37.660Z,50.35
2018-06-25T16:17:39.613Z,50.12
2018-06-25T16:19:41.578Z,48.02
2018-06-25T16:21:43.602Z,48.38
2018-06-25T16:23:45.534Z,49.45
2018-06-25T16:25:47.483Z,50.67
2018-06-25T16:27:49.473Z,47.90
2018-06-25T16:29:51.453Z,50.65
2018-06-25T16:31:53.437Z,46.48
2018-06-25T16:33:55.393Z,48.28
2018-06-25T16:35:57.365Z,46.92
2018-06-25T16:37:59.344Z,47.27
2018-06-25T16:40:01.315Z,47.90
2018-06-25T16:42:03.397Z,46.42
2018-06-25T16:44:05.331Z,47.43
2018-06-25T16:46:07.287Z,46.45
2018-06-25T16:48:09.269Z,47.75
2018-06-25T16:50:11.249Z,46.00
2018-06-25T16:52:13.228Z,45.60
2018-06-25T16:54:15.178Z,43.68
2018-06-25T16:56:17.164Z,45.45
2018-06-25T16:58:19.152Z,45.75
2018-06-25T17:00:21.112Z,45.40
2018-06-25T17:02:23.104Z,44.23
2018-06-25T17:04:25.086Z,41.95
2018-06-25T17:06:27.067Z,44.08
2018-06-25T17:08:29.055Z,43.30
2018-06-25T17:10:31.037Z,42.23
2018-06-25T17:12:32.980Z,44.08
2018-06-25T17:14:34.952Z,43.80
2018-06-25T17:16:36.928Z,43.10
2018-06-25T17:18:38.888Z,44.40
2018-06-25T17:20:40.858Z,45.03
2018-06-25T17:22:42.847Z,43.25
2018-06-25T17:24:44.819Z,42.90
2018-06-25T17:26:46.800Z,41.98
2018-06-25T17:28:48.833Z,42.53
2018-06-25T17:30:50.744Z,42.48
2018-06-25T17:32:52.723Z,42.27
2018-06-25T17:34:54.695Z,41.90
2018-06-25T17:36:56.682Z,41.70
2018-06-25T17:38:58.653Z,41.65
2018-06-25T17:41:00.684Z,39.78
2018-06-25T17:43:02.657Z,40.48
2018-06-25T17:45:04.616Z,41.60
2018-06-25T17:47:06.633Z,41.20
2018-06-25T17:49:08.602Z,40.60
2018-06-25T17:51:10.563Z,40.12
2018-06-25T17:53:12.553Z,41.53
2018-06-25T17:55:14.514Z,38.10
2018-06-25T17:57:16.502Z,41.02
2018-06-25T17:59:18.467Z,40.30
2018-06-25T18:01:20.692Z,40.12
2018-06-25T18:03:22.680Z,38.35
2018-06-25T18:05:24.668Z,39.35
2018-06-25T18:07:26.665Z,40.30
2018-06-25T18:09:28.622Z,38.45
2018-06-25T18:11:30.576Z,39.83
2018-06-25T18:13:32.567Z,40.43
2018-06-25T18:15:34.545Z,39.80
2018-06-25T18:17:36.525Z,40.35
2018-06-25T18:19:38.502Z,38.23
2018-06-25T18:21:40.486Z,41.05
2018-06-25T18:23:42.443Z,36.85
2018-06-25T18:25:44.439Z,37.42
2018-06-25T18:27:46.380Z,37.03
2018-06-25T18:29:48.389Z,37.65
2018-06-25T18:31:50.359Z,37.80
2018-06-25T18:33:52.322Z,37.55
2018-06-25T18:35:54.301Z,36.90
2018-06-25T18:37:56.259Z,38.50
2018-06-25T18:39:58.243Z,36.35
2018-06-25T18:42:00.232Z,36.93
2018-06-25T18:44:02.212Z,36.08
2018-06-25T18:46:04.161Z,36.13
2018-06-25T18:48:06.162Z,36.03
2018-06-25T18:50:08.121Z,35.78
2018-06-25T18:52:10.098Z,36.85
2018-06-25T18:54:12.049Z,36.93
2018-06-25T18:56:14.042Z,35.13
2018-06-25T18:58:16.013Z,36.95
2018-06-25T19:00:17.995Z,35.60
2018-06-25T19:02:19.964Z,35.90
2018-06-25T19:04:21.940Z,34.53
2018-06-25T19:06:23.913Z,32.73
2018-06-25T19:08:25.866Z,34.10
2018-06-25T19:10:27.879Z,35.45
2018-06-25T19:12:29.833Z,36.98
2018-06-25T19:14:31.800Z,35.20
2018-06-25T19:16:33.797Z,34.60
2018-06-25T19:18:35.758Z,33.28
2018-06-25T19:20:37.758Z,34.65
2018-06-25T19:22:39.735Z,33.08
2018-06-25T19:24:41.704Z,32.45
2018-06-25T19:26:43.688Z,35.85
2018-06-25T19:28:45.718Z,32.75
2018-06-25T19:30:48.409Z,33.25
2018-06-25T19:32:50.283Z,33.48
2018-06-25T19:34:52.245Z,31.80
2018-06-25T19:36:54.259Z,32.67
2018-06-25T19:38:56.233Z,32.88
2018-06-25T19:40:58.199Z,32.70
2018-06-25T19:43:00.181Z,31.52
2018-06-25T19:45:02.130Z,32.93
2018-06-25T19:47:04.090Z,32.15
2018-06-25T19:49:06.063Z,31.87
2018-06-25T19:51:08.049Z,30.85
2018-06-25T19:53:10.027Z,31.02
2018-06-25T19:55:12.015Z,32.40
2018-06-25T19:57:13.970Z,31.73
2018-06-25T19:59:15.930Z,29.82
2018-06-25T20:01:17.961Z,30.45
2018-06-25T20:03:19.939Z,31.35
2018-06-25T20:05:21.901Z,31.05
2018-06-25T20:07:23.886Z,31.75
2018-06-25T20:09:25.859Z,30.65
2018-06-25T20:11:27.820Z,29.60
2018-06-25T20:13:29.798Z,30.65
2018-06-25T20:15:31.805Z,31.37
2018-06-25T20:17:33.770Z,32.00
2018-06-25T20:19:35.770Z,30.23
2018-06-25T20:21:37.717Z,30.25
2018-06-25T20:23:39.689Z,29.67
2018-06-25T20:25:41.721Z,30.48
2018-06-25T20:27:43.638Z,29.95
2018-06-25T20:29:45.614Z,30.62
2018-06-25T20:31:47.584Z,29.98
2018-06-25T20:33:49.551Z,29.25
2018-06-25T20:35:51.507Z,28.57
2018-06-25T20:37:53.496Z,30.50
2018-06-25T20:39:55.871Z,29.75
2018-06-25T20:41:57.741Z,29.27
2018-06-25T20:43:59.770Z,28.65
2018-06-25T20:46:01.743Z,28.95
2018-06-25T20:48:03.748Z,28.15
2018-06-25T20:50:05.733Z,28.50
2018-06-25T20:52:07.700Z,28.80
2018-06-25T20:54:09.689Z,27.42
2018-06-25T20:56:11.657Z,28.55
2018-06-25T20:58:13.658Z,28.57
2018-06-25T21:00:15.623Z,27.48
2018-06-25T21:02:17.611Z,28.75
2018-06-25T21:04:19.570Z,28.17
2018-06-25T21:06:21.542Z,26.75
2018-06-25T21:08:23.936Z,27.37
2018-06-25T21:10:25.775Z,28.05
2018-06-25T21:12:27.740Z,27.87
2018-06-25T21:14:29.689Z,26.87
2018-06-25T21:16:31.662Z,29.35
2018-06-25T21:18:33.644Z,28.38
2018-06-25T21:20:35.634Z,26.02
2018-06-25T21:22:37.596Z,27.65
2018-06-25T21:24:39.570Z,26.85
2018-06-25T21:26:41.570Z,28.25
2018-06-25T21:28:43.573Z,26.90
2018-06-25T21:30:45.543Z,25.85
2018-06-25T21:32:47.518Z,26.62
2018-06-25T21:34:49.500Z,26.07
2018-06-25T21:36:51.472Z,27.60
2018-06-25T21:38:53.444Z,26.70
2018-06-25T21:40:55.408Z,26.52
2018-06-25T21:42:57.373Z,26.30
2018-06-25T21:44:59.350Z,27.15
2018-06-25T21:47:01.331Z,27.20
2018-06-25T21:49:03.270Z,25.90
2018-06-25T21:51:05.251Z,26.60
2018-06-25T21:53:07.230Z,26.10
2018-06-25T21:55:09.218Z,24.35
2018-06-25T21:57:11.175Z,25.77
2018-06-25T21:59:13.128Z,26.50
2018-06-25T22:01:15.105Z,27.27
2018-06-25T22:03:17.063Z,23.35
2018-06-25T22:05:19.991Z,26.17
2018-06-25T22:07:21.976Z,25.40
2018-06-25T22:09:23.923Z,24.90
2018-06-25T22:11:25.900Z,23.73
2018-06-25T22:13:27.884Z,25.72
2018-06-25T22:15:29.847Z,24.63
2018-06-25T22:17:31.818Z,24.40
2018-06-25T22:19:33.771Z,22.52
2018-06-25T22:21:35.736Z,24.90
2018-06-25T22:23:37.731Z,24.10
2018-06-25T22:25:39.716Z,24.72
2018-06-25T22:27:41.685Z,24.18
2018-06-25T22:29:43.647Z,24.70
2018-06-25T22:31:45.616Z,23.70
2018-06-25T22:33:47.591Z,24.70
2018-06-25T22:35:49.563Z,24.00
2018-06-25T22:37:51.551Z,23.80
2018-06-25T22:39:53.525Z,24.52
2018-06-25T22:41:55.483Z,22.73
2018-06-25T22:43:57.459Z,25.05
2018-06-25T22:45:59.445Z,23.65
2018-06-25T22:48:01.678Z,23.75
2018-06-25T22:50:03.646Z,22.00
2018-06-25T22:52:05.615Z,23.60
2018-06-25T22:54:07.588Z,24.30
2018-06-25T22:56:09.544Z,24.15
2018-06-25T22:58:11.528Z,21.50
2018-06-25T23:00:13.501Z,21.62
2018-06-25T23:02:15.463Z,23.15
2018-06-25T23:04:17.441Z,23.35
2018-06-25T23:06:19.403Z,22.60
2018-06-25T23:08:21.397Z,22.22
2018-06-25T23:10:23.347Z,22.67
2018-06-25T23:12:25.313Z,22.62
2018-06-25T23:14:27.681Z,21.50
2018-06-25T23:16:29.513Z,21.85
2018-06-25T23:18:31.501Z,22.42
2018-06-25T23:20:33.465Z,22.15
2018-06-25T23:22:35.543Z,21.50
2018-06-25T23:24:37.489Z,21.73
2018-06-25T23:26:39.465Z,22.22
2018-06-25T23:28:41.441Z,20.90
2018-06-25T23:30:43.429Z,23.05
2018-06-25T23:32:45.389Z,21.70
2018-06-25T23:34:47.366Z,20.85
2018-06-25T23:36:49.333Z,21.82
2018-06-25T23:38:51.293Z,21.48
2018-06-25T23:40:53.261Z,20.90
2018-06-25T23:42:55.235Z,21.00
2018-06-25T23:44:57.185Z,20.92
2018-06-25T23:46:59.167Z,21.02
2018-06-25T23:49:01.133Z,20.23
2018-06-25T23:51:03.109Z,20.15
2018-06-25T23:53:05.078Z,21.02
2018-06-25T23:55:07.041Z,19.98
2018-06-25T23:57:09.034Z,20.72
2018-06-25T23:59:11.007Z,20.35
